Oakville, TX (78060)

1:24 PM CDT on September 19, 2014 (GMT -0500)
Beeville | Change Station
CLOSE
Current Station
Airport
Location: Beeville,
Elevation: 269 ft
Nearby Weather Stations

Elev 269 ft 28.37 °N, 97.80 °W | Updated 9 minutes ago

Mostly Cloudy
Mostly Cloudy
90 °F
Feels Like 97 °F
N
4
Wind Variable Wind from SW

Today
High -- | Low -- °F
--% Chance of Precip.
Yesterday
High -- | Low -- °F
Precip. -- in
7:19 AM 7:32 PM
Waning Crescent, 17% visible
Pressure 29.86 in
Visibility 10.0 miles
Clouds Scattered Clouds 4400 ft
Heat Index 97 °F
Dew Point 72 °F
Humidity 57%
Rainfall 0.00 in
Snow Depth Not available.
UV 8 out of 12
Pollen 9.10 out of 12
Air Quality Not available.
Flu Activity Not available.
METAR KBEA 191815Z AUTO 22003KT 10SM SCT044 32/23 A2986 RMK AO2 T03200225

More Conditions Fewer Conditions

Pressure 29.86 in
Visibility 10.0 miles
Clouds Scattered Clouds 4400 ft
Heat Index 97 °F
Dew Point 72 °F
Humidity 57%
Rainfall 0.00 in
Snow Depth Not available.
UV 8 out of 12
Pollen 9.10 out of 12
Air Quality Not available.
Flu Activity Not available.
METAR KBEA 191815Z AUTO 22003KT 10SM SCT044 32/23 A2986 RMK AO2 T03200225

More Conditions Fewer Conditions

10-Day Weather Forecast

Almanac

Astronomy

Sep. 19, 2014 Rise Set
Actual Time 7:19 AM CDT 7:32 PM CDT
Civil Twilight 6:55 AM CDT 7:55 PM CDT
Nautical Twilight 6:28 AM CDT 8:23 PM CDT
Astronomical Twilight 6:00 AM CDT 8:51 PM CDT
Moon 3:22 AM CDT 4:47 PM CDT
Length of Visible Light 13h 00m
Length of Day
12h 13m
Tomorrow will be 1m 42s shorter.
Waning Crescent, 17% of the Moon is Illuminated
Today
Waning Crescent
Sep 24
New
Oct 1
First Quarter
Oct 8
Full
Oct 15
Last Quarter

Today's Extremes

State Highs State Lows

Community

WunderPhotos

Upload Photos

1,754,677 photos uploaded!

WunderBlogs® & News

Nearby

Snow Depth

Station Depth Elevation
No new snow has been reported.

Earthquake Activity

City Distance Mag. Time & Date
No recent earthquake activity has been reported nearby.
Minimum magnitude displayed is 2.5.

Coastal Water Temperatures

Place Temperature
No Stations Reporting

Nearby Weather Stations